sensor_id;sensor_type;location;lat;lon;timestamp;temperature;humidity
18177;DHT22;9213;50.858;3.964;2023-05-21T00:00:27;19.70;40.60
18177;DHT22;9213;50.858;3.964;2023-05-21T00:02:53;19.70;40.50
18177;DHT22;9213;50.858;3.964;2023-05-21T00:05:22;19.70;40.70
18177;DHT22;9213;50.858;3.964;2023-05-21T00:07:49;19.60;40.60
18177;DHT22;9213;50.858;3.964;2023-05-21T00:10:18;19.60;40.60
18177;DHT22;9213;50.858;3.964;2023-05-21T00:12:45;19.60;40.80
18177;DHT22;9213;50.858;3.964;2023-05-21T00:15:13;19.50;41.00
18177;DHT22;9213;50.858;3.964;2023-05-21T00:17:40;19.50;41.20
18177;DHT22;9213;50.858;3.964;2023-05-21T00:20:08;19.50;41.10
18177;DHT22;9213;50.858;3.964;2023-05-21T00:22:35;19.40;41.10
18177;DHT22;9213;50.858;3.964;2023-05-21T00:25:02;19.40;41.10
18177;DHT22;9213;50.858;3.964;2023-05-21T00:27:29;19.40;41.00
18177;DHT22;9213;50.858;3.964;2023-05-21T00:29:56;19.30;41.10
18177;DHT22;9213;50.858;3.964;2023-05-21T00:32:24;19.30;41.30
18177;DHT22;9213;50.858;3.964;2023-05-21T00:34:51;19.30;41.30
18177;DHT22;9213;50.858;3.964;2023-05-21T00:37:19;19.20;41.30
18177;DHT22;9213;50.858;3.964;2023-05-21T00:39:46;19.20;41.20
18177;DHT22;9213;50.858;3.964;2023-05-21T00:42:13;19.20;41.40
18177;DHT22;9213;50.858;3.964;2023-05-21T00:44:42;19.20;41.60
18177;DHT22;9213;50.858;3.964;2023-05-21T00:47:10;19.10;41.60
18177;DHT22;9213;50.858;3.964;2023-05-21T00:49:39;19.10;41.70
18177;DHT22;9213;50.858;3.964;2023-05-21T00:52:06;19.10;41.70
18177;DHT22;9213;50.858;3.964;2023-05-21T00:54:33;19.10;41.80
18177;DHT22;9213;50.858;3.964;2023-05-21T00:57:01;19.10;42.00
18177;DHT22;9213;50.858;3.964;2023-05-21T00:59:30;19.00;41.80
18177;DHT22;9213;50.858;3.964;2023-05-21T01:01:57;19.00;42.00
18177;DHT22;9213;50.858;3.964;2023-05-21T01:04:29;19.00;42.20
18177;DHT22;9213;50.858;3.964;2023-05-21T01:06:58;18.90;42.30
18177;DHT22;9213;50.858;3.964;2023-05-21T01:09:25;18.90;42.30
18177;DHT22;9213;50.858;3.964;2023-05-21T01:11:52;18.80;42.30
18177;DHT22;9213;50.858;3.964;2023-05-21T01:14:22;18.80;42.50
18177;DHT22;9213;50.858;3.964;2023-05-21T01:16:49;18.80;42.60
18177;DHT22;9213;50.858;3.964;2023-05-21T01:19:19;18.80;42.60
18177;DHT22;9213;50.858;3.964;2023-05-21T01:21:48;18.70;42.90
18177;DHT22;9213;50.858;3.964;2023-05-21T01:24:17;18.70;43.10
18177;DHT22;9213;50.858;3.964;2023-05-21T01:26:44;18.70;43.30
18177;DHT22;9213;50.858;3.964;2023-05-21T01:29:12;18.60;43.20
18177;DHT22;9213;50.858;3.964;2023-05-21T01:31:51;18.60;43.20
18177;DHT22;9213;50.858;3.964;2023-05-21T01:34:25;18.50;43.60
18177;DHT22;9213;50.858;3.964;2023-05-21T01:36:58;18.50;43.70
18177;DHT22;9213;50.858;3.964;2023-05-21T01:39:31;18.50;43.80
18177;DHT22;9213;50.858;3.964;2023-05-21T01:42:00;18.40;43.70
18177;DHT22;9213;50.858;3.964;2023-05-21T01:44:29;18.40;44.00
18177;DHT22;9213;50.858;3.964;2023-05-21T01:46:57;18.40;44.10
18177;DHT22;9213;50.858;3.964;2023-05-21T01:49:25;18.30;44.30
18177;DHT22;9213;50.858;3.964;2023-05-21T01:51:52;18.30;44.50
18177;DHT22;9213;50.858;3.964;2023-05-21T01:54:19;18.30;44.60
18177;DHT22;9213;50.858;3.964;2023-05-21T01:56:47;18.20;44.40
18177;DHT22;9213;50.858;3.964;2023-05-21T01:59:15;18.20;44.60
18177;DHT22;9213;50.858;3.964;2023-05-21T02:01:43;18.20;44.60
18177;DHT22;9213;50.858;3.964;2023-05-21T02:04:09;18.20;44.80
18177;DHT22;9213;50.858;3.964;2023-05-21T02:06:36;18.10;44.80
18177;DHT22;9213;50.858;3.964;2023-05-21T02:09:04;18.10;45.00
18177;DHT22;9213;50.858;3.964;2023-05-21T02:11:31;18.10;45.20
18177;DHT22;9213;50.858;3.964;2023-05-21T02:13:59;18.00;45.20
18177;DHT22;9213;50.858;3.964;2023-05-21T02:16:26;18.00;45.40
18177;DHT22;9213;50.858;3.964;2023-05-21T02:18:53;18.00;45.50
18177;DHT22;9213;50.858;3.964;2023-05-21T02:21:22;18.00;45.50
18177;DHT22;9213;50.858;3.964;2023-05-21T02:23:48;17.90;45.70
18177;DHT22;9213;50.858;3.964;2023-05-21T02:26:15;17.90;45.80
18177;DHT22;9213;50.858;3.964;2023-05-21T02:28:43;17.90;45.90
18177;DHT22;9213;50.858;3.964;2023-05-21T02:31:11;17.80;45.80
18177;DHT22;9213;50.858;3.964;2023-05-21T02:33:39;17.80;46.00
18177;DHT22;9213;50.858;3.964;2023-05-21T02:36:06;17.80;46.00
18177;DHT22;9213;50.858;3.964;2023-05-21T02:38:38;17.70;46.10
18177;DHT22;9213;50.858;3.964;2023-05-21T02:41:08;17.70;46.20
18177;DHT22;9213;50.858;3.964;2023-05-21T02:43:35;17.70;46.30
18177;DHT22;9213;50.858;3.964;2023-05-21T02:48:30;17.60;46.40
18177;DHT22;9213;50.858;3.964;2023-05-21T02:50:57;17.60;46.60
18177;DHT22;9213;50.858;3.964;2023-05-21T02:53:24;17.60;46.60
18177;DHT22;9213;50.858;3.964;2023-05-21T02:55:51;17.50;46.70
18177;DHT22;9213;50.858;3.964;2023-05-21T02:58:18;17.50;46.80
18177;DHT22;9213;50.858;3.964;2023-05-21T03:00:48;17.50;46.90
18177;DHT22;9213;50.858;3.964;2023-05-21T03:03:14;17.50;46.90
18177;DHT22;9213;50.858;3.964;2023-05-21T03:05:43;17.40;47.00
18177;DHT22;9213;50.858;3.964;2023-05-21T03:08:10;17.40;47.10
18177;DHT22;9213;50.858;3.964;2023-05-21T03:10:37;17.40;47.20
18177;DHT22;9213;50.858;3.964;2023-05-21T03:13:04;17.40;47.20
18177;DHT22;9213;50.858;3.964;2023-05-21T03:15:31;17.40;47.40
18177;DHT22;9213;50.858;3.964;2023-05-21T03:17:58;17.40;48.20
18177;DHT22;9213;50.858;3.964;2023-05-21T03:20:26;17.30;47.50
18177;DHT22;9213;50.858;3.964;2023-05-21T03:22:54;17.30;47.60
18177;DHT22;9213;50.858;3.964;2023-05-21T03:25:21;17.30;47.80
18177;DHT22;9213;50.858;3.964;2023-05-21T03:27:50;17.20;47.70
18177;DHT22;9213;50.858;3.964;2023-05-21T03:30:17;17.20;47.90
18177;DHT22;9213;50.858;3.964;2023-05-21T03:32:45;17.20;48.00
18177;DHT22;9213;50.858;3.964;2023-05-21T03:35:12;17.20;48.10
18177;DHT22;9213;50.858;3.964;2023-05-21T03:37:39;17.20;48.10
18177;DHT22;9213;50.858;3.964;2023-05-21T03:40:08;17.20;48.20
18177;DHT22;9213;50.858;3.964;2023-05-21T03:42:35;17.20;48.30
18177;DHT22;9213;50.858;3.964;2023-05-21T03:45:02;17.10;48.40
18177;DHT22;9213;50.858;3.964;2023-05-21T03:47:29;17.10;49.10
18177;DHT22;9213;50.858;3.964;2023-05-21T03:49:56;17.10;48.70
18177;DHT22;9213;50.858;3.964;2023-05-21T03:52:23;17.10;48.80
18177;DHT22;9213;50.858;3.964;2023-05-21T03:54:50;17.10;48.80
18177;DHT22;9213;50.858;3.964;2023-05-21T03:57:18;17.10;48.90
18177;DHT22;9213;50.858;3.964;2023-05-21T03:59:45;17.10;49.10
18177;DHT22;9213;50.858;3.964;2023-05-21T04:02:12;17.00;49.00
18177;DHT22;9213;50.858;3.964;2023-05-21T04:04:39;17.00;49.10
18177;DHT22;9213;50.858;3.964;2023-05-21T04:07:06;17.00;49.20
18177;DHT22;9213;50.858;3.964;2023-05-21T04:09:39;17.00;49.20
18177;DHT22;9213;50.858;3.964;2023-05-21T04:12:06;17.00;49.20
18177;DHT22;9213;50.858;3.964;2023-05-21T04:14:34;17.00;49.30
18177;DHT22;9213;50.858;3.964;2023-05-21T04:17:02;17.00;49.50
18177;DHT22;9213;50.858;3.964;2023-05-21T04:19:30;17.00;49.50
18177;DHT22;9213;50.858;3.964;2023-05-21T04:21:57;17.00;49.50
18177;DHT22;9213;50.858;3.964;2023-05-21T04:24:24;17.00;49.50
18177;DHT22;9213;50.858;3.964;2023-05-21T04:26:51;16.90;49.60
18177;DHT22;9213;50.858;3.964;2023-05-21T04:29:18;17.00;50.40
18177;DHT22;9213;50.858;3.964;2023-05-21T04:31:47;16.90;49.80
18177;DHT22;9213;50.858;3.964;2023-05-21T04:34:14;17.00;49.80
18177;DHT22;9213;50.858;3.964;2023-05-21T04:36:42;17.00;49.80
18177;DHT22;9213;50.858;3.964;2023-05-21T04:39:09;17.00;49.70
18177;DHT22;9213;50.858;3.964;2023-05-21T04:41:36;17.00;49.90
18177;DHT22;9213;50.858;3.964;2023-05-21T04:44:05;17.00;49.90
18177;DHT22;9213;50.858;3.964;2023-05-21T04:46:32;17.00;49.90
18177;DHT22;9213;50.858;3.964;2023-05-21T04:49:00;17.10;49.90
18177;DHT22;9213;50.858;3.964;2023-05-21T04:51:28;17.10;50.00
18177;DHT22;9213;50.858;3.964;2023-05-21T04:53:55;17.10;50.00
18177;DHT22;9213;50.858;3.964;2023-05-21T04:56:22;17.10;50.30
18177;DHT22;9213;50.858;3.964;2023-05-21T04:58:51;17.20;50.00
18177;DHT22;9213;50.858;3.964;2023-05-21T05:01:18;17.30;50.00
18177;DHT22;9213;50.858;3.964;2023-05-21T05:03:47;17.30;50.00
18177;DHT22;9213;50.858;3.964;2023-05-21T05:06:16;17.30;50.00
18177;DHT22;9213;50.858;3.964;2023-05-21T05:08:43;17.40;50.00
18177;DHT22;9213;50.858;3.964;2023-05-21T05:11:10;17.50;50.00
18177;DHT22;9213;50.858;3.964;2023-05-21T05:13:38;17.50;50.00
18177;DHT22;9213;50.858;3.964;2023-05-21T05:16:06;17.60;50.00
18177;DHT22;9213;50.858;3.964;2023-05-21T05:18:34;17.70;49.80
18177;DHT22;9213;50.858;3.964;2023-05-21T05:21:01;17.70;49.70
18177;DHT22;9213;50.858;3.964;2023-05-21T05:23:29;17.80;49.60
18177;DHT22;9213;50.858;3.964;2023-05-21T05:25:56;18.00;49.70
18177;DHT22;9213;50.858;3.964;2023-05-21T05:28:23;18.10;49.60
18177;DHT22;9213;50.858;3.964;2023-05-21T05:30:50;18.20;49.30
18177;DHT22;9213;50.858;3.964;2023-05-21T05:33:17;18.30;49.20
18177;DHT22;9213;50.858;3.964;2023-05-21T05:35:44;18.40;48.90
18177;DHT22;9213;50.858;3.964;2023-05-21T05:38:10;18.50;48.90
18177;DHT22;9213;50.858;3.964;2023-05-21T05:40:39;18.60;48.70
18177;DHT22;9213;50.858;3.964;2023-05-21T05:43:06;18.80;48.70
18177;DHT22;9213;50.858;3.964;2023-05-21T05:45:33;18.80;48.30
18177;DHT22;9213;50.858;3.964;2023-05-21T05:48:00;18.90;48.10
18177;DHT22;9213;50.858;3.964;2023-05-21T05:50:27;19.00;47.80
18177;DHT22;9213;50.858;3.964;2023-05-21T05:52:53;19.10;47.70
18177;DHT22;9213;50.858;3.964;2023-05-21T05:55:20;19.10;47.60
18177;DHT22;9213;50.858;3.964;2023-05-21T05:57:51;19.20;47.60
18177;DHT22;9213;50.858;3.964;2023-05-21T06:00:18;19.30;47.60
18177;DHT22;9213;50.858;3.964;2023-05-21T06:02:45;19.30;47.60
18177;DHT22;9213;50.858;3.964;2023-05-21T06:05:13;19.40;47.30
18177;DHT22;9213;50.858;3.964;2023-05-21T06:07:40;19.40;47.20
18177;DHT22;9213;50.858;3.964;2023-05-21T06:10:07;19.50;47.20
18177;DHT22;9213;50.858;3.964;2023-05-21T06:12:34;19.50;47.40
18177;DHT22;9213;50.858;3.964;2023-05-21T06:15:03;19.60;47.20
18177;DHT22;9213;50.858;3.964;2023-05-21T06:17:31;19.70;47.40
18177;DHT22;9213;50.858;3.964;2023-05-21T06:19:58;19.70;47.00
18177;DHT22;9213;50.858;3.964;2023-05-21T06:22:24;19.90;46.90
18177;DHT22;9213;50.858;3.964;2023-05-21T06:24:51;19.90;46.70
18177;DHT22;9213;50.858;3.964;2023-05-21T06:27:18;20.00;46.70
18177;DHT22;9213;50.858;3.964;2023-05-21T06:29:45;20.20;46.40
18177;DHT22;9213;50.858;3.964;2023-05-21T06:32:14;20.30;46.20
18177;DHT22;9213;50.858;3.964;2023-05-21T06:34:40;20.50;46.00
18177;DHT22;9213;50.858;3.964;2023-05-21T06:37:07;20.70;45.80
18177;DHT22;9213;50.858;3.964;2023-05-21T06:39:34;20.90;45.50
18177;DHT22;9213;50.858;3.964;2023-05-21T06:42:01;21.10;45.00
18177;DHT22;9213;50.858;3.964;2023-05-21T06:44:28;21.50;44.10
18177;DHT22;9213;50.858;3.964;2023-05-21T06:46:55;21.90;43.40
18177;DHT22;9213;50.858;3.964;2023-05-21T06:49:23;22.30;42.50
18177;DHT22;9213;50.858;3.964;2023-05-21T06:51:51;22.70;41.50
18177;DHT22;9213;50.858;3.964;2023-05-21T06:54:18;23.10;40.50
18177;DHT22;9213;50.858;3.964;2023-05-21T06:56:45;23.40;39.50
18177;DHT22;9213;50.858;3.964;2023-05-21T06:59:11;23.60;39.40
18177;DHT22;9213;50.858;3.964;2023-05-21T07:01:38;24.00;38.70
18177;DHT22;9213;50.858;3.964;2023-05-21T07:04:08;24.40;38.20
18177;DHT22;9213;50.858;3.964;2023-05-21T07:06:37;24.80;37.40
18177;DHT22;9213;50.858;3.964;2023-05-21T07:09:04;25.10;36.60
18177;DHT22;9213;50.858;3.964;2023-05-21T07:11:32;25.30;35.90
18177;DHT22;9213;50.858;3.964;2023-05-21T07:13:59;25.60;36.00
18177;DHT22;9213;50.858;3.964;2023-05-21T07:16:26;26.00;35.20
18177;DHT22;9213;50.858;3.964;2023-05-21T07:18:53;26.40;33.70
18177;DHT22;9213;50.858;3.964;2023-05-21T07:21:20;26.60;33.30
18177;DHT22;9213;50.858;3.964;2023-05-21T07:23:48;26.80;33.00
18177;DHT22;9213;50.858;3.964;2023-05-21T07:26:15;27.10;33.00
18177;DHT22;9213;50.858;3.964;2023-05-21T07:28:42;27.10;32.40
18177;DHT22;9213;50.858;3.964;2023-05-21T07:31:09;27.30;32.20
18177;DHT22;9213;50.858;3.964;2023-05-21T07:33:37;27.40;32.30
18177;DHT22;9213;50.858;3.964;2023-05-21T07:36:05;27.60;32.30
18177;DHT22;9213;50.858;3.964;2023-05-21T07:38:32;27.90;31.30
18177;DHT22;9213;50.858;3.964;2023-05-21T07:41:01;28.10;31.30
18177;DHT22;9213;50.858;3.964;2023-05-21T07:43:28;28.30;30.80
18177;DHT22;9213;50.858;3.964;2023-05-21T07:45:54;28.60;30.10
18177;DHT22;9213;50.858;3.964;2023-05-21T07:48:21;28.80;29.60
18177;DHT22;9213;50.858;3.964;2023-05-21T07:50:48;28.90;28.80
18177;DHT22;9213;50.858;3.964;2023-05-21T07:53:17;28.70;28.80
18177;DHT22;9213;50.858;3.964;2023-05-21T07:55:44;28.50;29.50
18177;DHT22;9213;50.858;3.964;2023-05-21T07:58:15;28.60;29.80
18177;DHT22;9213;50.858;3.964;2023-05-21T08:00:42;29.10;30.00
18177;DHT22;9213;50.858;3.964;2023-05-21T08:03:12;29.60;28.90
18177;DHT22;9213;50.858;3.964;2023-05-21T08:05:41;30.20;28.20
18177;DHT22;9213;50.858;3.964;2023-05-21T08:08:09;30.60;27.00
18177;DHT22;9213;50.858;3.964;2023-05-21T08:10:37;30.80;26.50
18177;DHT22;9213;50.858;3.964;2023-05-21T08:13:04;30.90;26.10
18177;DHT22;9213;50.858;3.964;2023-05-21T08:15:32;31.00;26.50
18177;DHT22;9213;50.858;3.964;2023-05-21T08:17:59;31.10;26.20
18177;DHT22;9213;50.858;3.964;2023-05-21T08:20:26;31.10;26.00
18177;DHT22;9213;50.858;3.964;2023-05-21T08:22:55;31.30;25.90
18177;DHT22;9213;50.858;3.964;2023-05-21T08:25:22;31.30;25.60
18177;DHT22;9213;50.858;3.964;2023-05-21T08:27:49;31.50;25.60
18177;DHT22;9213;50.858;3.964;2023-05-21T08:30:16;31.60;25.20
18177;DHT22;9213;50.858;3.964;2023-05-21T08:32:44;31.70;25.10
18177;DHT22;9213;50.858;3.964;2023-05-21T08:35:11;31.70;25.20
18177;DHT22;9213;50.858;3.964;2023-05-21T08:37:38;31.90;25.10
18177;DHT22;9213;50.858;3.964;2023-05-21T08:40:06;32.00;24.90
18177;DHT22;9213;50.858;3.964;2023-05-21T08:42:38;32.00;25.20
18177;DHT22;9213;50.858;3.964;2023-05-21T08:45:07;31.90;24.70
18177;DHT22;9213;50.858;3.964;2023-05-21T08:47:34;31.80;24.80
18177;DHT22;9213;50.858;3.964;2023-05-21T08:50:04;31.70;24.50
18177;DHT22;9213;50.858;3.964;2023-05-21T08:52:33;31.70;25.10
18177;DHT22;9213;50.858;3.964;2023-05-21T08:55:00;31.60;24.90
18177;DHT22;9213;50.858;3.964;2023-05-21T08:57:29;31.60;25.20
18177;DHT22;9213;50.858;3.964;2023-05-21T08:59:56;31.50;25.30
18177;DHT22;9213;50.858;3.964;2023-05-21T09:02:23;31.40;26.20
18177;DHT22;9213;50.858;3.964;2023-05-21T09:04:52;31.30;25.50
18177;DHT22;9213;50.858;3.964;2023-05-21T09:07:24;31.30;26.20
18177;DHT22;9213;50.858;3.964;2023-05-21T09:09:55;31.10;25.90
18177;DHT22;9213;50.858;3.964;2023-05-21T09:12:23;30.90;26.00
18177;DHT22;9213;50.858;3.964;2023-05-21T09:14:51;30.70;25.70
18177;DHT22;9213;50.858;3.964;2023-05-21T09:17:18;30.40;26.80
18177;DHT22;9213;50.858;3.964;2023-05-21T09:20:05;30.30;27.40
18177;DHT22;9213;50.858;3.964;2023-05-21T09:22:38;30.50;27.60
18177;DHT22;9213;50.858;3.964;2023-05-21T09:25:07;30.70;26.60
18177;DHT22;9213;50.858;3.964;2023-05-21T09:27:34;30.90;27.20
18177;DHT22;9213;50.858;3.964;2023-05-21T09:30:02;31.00;27.10
18177;DHT22;9213;50.858;3.964;2023-05-21T09:32:29;31.20;26.50
18177;DHT22;9213;50.858;3.964;2023-05-21T09:34:56;31.20;25.90
18177;DHT22;9213;50.858;3.964;2023-05-21T09:37:23;31.10;25.90
18177;DHT22;9213;50.858;3.964;2023-05-21T09:39:53;30.90;25.80
18177;DHT22;9213;50.858;3.964;2023-05-21T09:42:20;30.70;26.60
18177;DHT22;9213;50.858;3.964;2023-05-21T09:44:48;30.50;27.70
18177;DHT22;9213;50.858;3.964;2023-05-21T09:47:18;30.60;27.50
18177;DHT22;9213;50.858;3.964;2023-05-21T09:49:47;30.90;27.00
18177;DHT22;9213;50.858;3.964;2023-05-21T09:52:22;31.30;26.80
18177;DHT22;9213;50.858;3.964;2023-05-21T09:54:50;31.60;26.90
18177;DHT22;9213;50.858;3.964;2023-05-21T09:57:24;31.90;25.90
18177;DHT22;9213;50.858;3.964;2023-05-21T09:59:51;32.10;25.60
18177;DHT22;9213;50.858;3.964;2023-05-21T10:02:19;32.00;25.10
18177;DHT22;9213;50.858;3.964;2023-05-21T10:04:48;31.90;24.80
18177;DHT22;9213;50.858;3.964;2023-05-21T10:07:18;31.70;25.00
18177;DHT22;9213;50.858;3.964;2023-05-21T10:09:46;31.60;25.40
18177;DHT22;9213;50.858;3.964;2023-05-21T10:12:17;31.40;26.20
18177;DHT22;9213;50.858;3.964;2023-05-21T10:14:50;31.30;26.70
18177;DHT22;9213;50.858;3.964;2023-05-21T10:17:18;31.20;27.30
18177;DHT22;9213;50.858;3.964;2023-05-21T10:19:45;31.20;26.70
18177;DHT22;9213;50.858;3.964;2023-05-21T10:22:13;31.10;27.10
18177;DHT22;9213;50.858;3.964;2023-05-21T10:24:42;31.10;27.00
18177;DHT22;9213;50.858;3.964;2023-05-21T10:27:11;31.20;27.40
18177;DHT22;9213;50.858;3.964;2023-05-21T10:29:40;31.20;26.90
18177;DHT22;9213;50.858;3.964;2023-05-21T10:32:12;31.30;27.20
18177;DHT22;9213;50.858;3.964;2023-05-21T10:34:41;31.40;26.80
18177;DHT22;9213;50.858;3.964;2023-05-21T10:37:08;31.30;27.50
18177;DHT22;9213;50.858;3.964;2023-05-21T10:39:38;31.30;26.80
18177;DHT22;9213;50.858;3.964;2023-05-21T10:42:17;31.20;27.10
18177;DHT22;9213;50.858;3.964;2023-05-21T10:44:58;31.20;28.30
18177;DHT22;9213;50.858;3.964;2023-05-21T10:47:42;31.40;27.40
18177;DHT22;9213;50.858;3.964;2023-05-21T10:50:32;31.50;27.30
18177;DHT22;9213;50.858;3.964;2023-05-21T10:53:12;31.50;27.80
18177;DHT22;9213;50.858;3.964;2023-05-21T10:55:51;31.40;27.20
18177;DHT22;9213;50.858;3.964;2023-05-21T10:58:37;31.40;27.90
18177;DHT22;9213;50.858;3.964;2023-05-21T11:01:07;31.50;27.40
18177;DHT22;9213;50.858;3.964;2023-05-21T11:03:37;31.30;27.30
18177;DHT22;9213;50.858;3.964;2023-05-21T11:06:04;31.20;27.60
18177;DHT22;9213;50.858;3.964;2023-05-21T11:08:33;31.00;27.70
18177;DHT22;9213;50.858;3.964;2023-05-21T11:11:01;30.80;27.90
18177;DHT22;9213;50.858;3.964;2023-05-21T11:13:44;30.80;28.10
18177;DHT22;9213;50.858;3.964;2023-05-21T11:16:14;30.90;28.00
18177;DHT22;9213;50.858;3.964;2023-05-21T11:18:59;30.80;27.70
18177;DHT22;9213;50.858;3.964;2023-05-21T11:21:30;30.80;28.70
18177;DHT22;9213;50.858;3.964;2023-05-21T11:24:02;30.70;28.10
18177;DHT22;9213;50.858;3.964;2023-05-21T11:29:19;30.40;28.50
18177;DHT22;9213;50.858;3.964;2023-05-21T11:31:48;30.30;29.40
18177;DHT22;9213;50.858;3.964;2023-05-21T11:34:35;30.20;29.70
18177;DHT22;9213;50.858;3.964;2023-05-21T11:37:22;30.10;30.50
18177;DHT22;9213;50.858;3.964;2023-05-21T11:39:51;30.10;30.50
18177;DHT22;9213;50.858;3.964;2023-05-21T11:42:27;30.00;30.70
18177;DHT22;9213;50.858;3.964;2023-05-21T11:44:55;30.20;31.00
18177;DHT22;9213;50.858;3.964;2023-05-21T11:47:23;30.40;30.20
18177;DHT22;9213;50.858;3.964;2023-05-21T11:49:53;30.50;29.40
18177;DHT22;9213;50.858;3.964;2023-05-21T11:52:20;30.50;29.50
18177;DHT22;9213;50.858;3.964;2023-05-21T11:54:49;30.60;29.30
18177;DHT22;9213;50.858;3.964;2023-05-21T11:57:18;30.60;29.00
18177;DHT22;9213;50.858;3.964;2023-05-21T11:59:45;30.60;29.20
18177;DHT22;9213;50.858;3.964;2023-05-21T12:02:16;30.70;29.20
18177;DHT22;9213;50.858;3.964;2023-05-21T12:04:44;30.80;29.30
18177;DHT22;9213;50.858;3.964;2023-05-21T12:07:15;30.80;28.90
18177;DHT22;9213;50.858;3.964;2023-05-21T12:09:44;30.90;29.10
18177;DHT22;9213;50.858;3.964;2023-05-21T12:12:13;31.00;29.70
18177;DHT22;9213;50.858;3.964;2023-05-21T12:14:42;31.10;29.20
18177;DHT22;9213;50.858;3.964;2023-05-21T12:17:10;31.10;28.90
18177;DHT22;9213;50.858;3.964;2023-05-21T12:19:38;31.10;29.10
18177;DHT22;9213;50.858;3.964;2023-05-21T12:22:06;31.00;28.80
18177;DHT22;9213;50.858;3.964;2023-05-21T12:24:35;30.80;28.60
18177;DHT22;9213;50.858;3.964;2023-05-21T12:27:03;30.80;29.10
18177;DHT22;9213;50.858;3.964;2023-05-21T12:29:35;30.70;29.50
18177;DHT22;9213;50.858;3.964;2023-05-21T12:32:04;30.60;30.00
18177;DHT22;9213;50.858;3.964;2023-05-21T12:34:40;30.60;29.30
18177;DHT22;9213;50.858;3.964;2023-05-21T12:37:07;30.50;29.30
18177;DHT22;9213;50.858;3.964;2023-05-21T12:39:39;30.50;29.80
18177;DHT22;9213;50.858;3.964;2023-05-21T12:42:07;30.40;29.60
18177;DHT22;9213;50.858;3.964;2023-05-21T12:44:34;30.30;30.30
18177;DHT22;9213;50.858;3.964;2023-05-21T12:47:02;30.30;30.40
18177;DHT22;9213;50.858;3.964;2023-05-21T12:49:40;30.30;30.00
18177;DHT22;9213;50.858;3.964;2023-05-21T12:52:09;30.40;30.60
18177;DHT22;9213;50.858;3.964;2023-05-21T12:54:38;30.40;30.00
18177;DHT22;9213;50.858;3.964;2023-05-21T12:57:12;30.40;30.30
18177;DHT22;9213;50.858;3.964;2023-05-21T12:59:46;30.40;30.40
18177;DHT22;9213;50.858;3.964;2023-05-21T13:02:24;30.40;29.90
18177;DHT22;9213;50.858;3.964;2023-05-21T13:04:55;30.40;30.40
18177;DHT22;9213;50.858;3.964;2023-05-21T13:07:23;30.30;30.70
18177;DHT22;9213;50.858;3.964;2023-05-21T13:09:51;30.20;30.50
18177;DHT22;9213;50.858;3.964;2023-05-21T13:12:21;30.20;31.00
18177;DHT22;9213;50.858;3.964;2023-05-21T13:14:49;30.10;31.20
18177;DHT22;9213;50.858;3.964;2023-05-21T13:17:16;30.00;31.30
18177;DHT22;9213;50.858;3.964;2023-05-21T13:20:04;30.00;31.20
18177;DHT22;9213;50.858;3.964;2023-05-21T13:22:32;29.90;31.00
18177;DHT22;9213;50.858;3.964;2023-05-21T13:25:00;29.70;31.20
18177;DHT22;9213;50.858;3.964;2023-05-21T13:27:28;29.70;31.80
18177;DHT22;9213;50.858;3.964;2023-05-21T13:29:55;29.70;31.40
18177;DHT22;9213;50.858;3.964;2023-05-21T13:32:22;29.60;31.70
18177;DHT22;9213;50.858;3.964;2023-05-21T13:34:49;29.50;31.60
18177;DHT22;9213;50.858;3.964;2023-05-21T13:37:16;29.60;32.00
18177;DHT22;9213;50.858;3.964;2023-05-21T13:39:43;29.60;31.90
18177;DHT22;9213;50.858;3.964;2023-05-21T13:42:10;29.50;31.90
18177;DHT22;9213;50.858;3.964;2023-05-21T13:44:38;29.60;32.20
18177;DHT22;9213;50.858;3.964;2023-05-21T13:47:06;29.60;31.70
18177;DHT22;9213;50.858;3.964;2023-05-21T13:49:34;29.60;32.20
18177;DHT22;9213;50.858;3.964;2023-05-21T13:52:01;29.60;31.80
18177;DHT22;9213;50.858;3.964;2023-05-21T13:54:28;29.60;32.00
18177;DHT22;9213;50.858;3.964;2023-05-21T13:56:56;29.70;32.00
18177;DHT22;9213;50.858;3.964;2023-05-21T13:59:23;29.70;31.60
18177;DHT22;9213;50.858;3.964;2023-05-21T14:01:52;29.70;31.90
18177;DHT22;9213;50.858;3.964;2023-05-21T14:04:19;29.70;32.00
18177;DHT22;9213;50.858;3.964;2023-05-21T14:06:46;29.80;31.80
18177;DHT22;9213;50.858;3.964;2023-05-21T14:09:13;29.70;32.00
18177;DHT22;9213;50.858;3.964;2023-05-21T14:11:41;29.80;32.00
18177;DHT22;9213;50.858;3.964;2023-05-21T14:14:08;29.80;31.90
18177;DHT22;9213;50.858;3.964;2023-05-21T14:16:34;29.90;32.50
18177;DHT22;9213;50.858;3.964;2023-05-21T14:19:03;29.90;32.00
18177;DHT22;9213;50.858;3.964;2023-05-21T14:21:30;29.80;33.00
18177;DHT22;9213;50.858;3.964;2023-05-21T14:23:57;29.90;32.50
18177;DHT22;9213;50.858;3.964;2023-05-21T14:26:24;29.80;32.30
18177;DHT22;9213;50.858;3.964;2023-05-21T14:28:51;29.70;32.50
18177;DHT22;9213;50.858;3.964;2023-05-21T14:31:18;29.70;32.50
18177;DHT22;9213;50.858;3.964;2023-05-21T14:33:46;29.70;32.30
18177;DHT22;9213;50.858;3.964;2023-05-21T14:36:14;29.60;32.30
18177;DHT22;9213;50.858;3.964;2023-05-21T14:38:41;29.50;32.30
18177;DHT22;9213;50.858;3.964;2023-05-21T14:41:08;29.50;33.20
18177;DHT22;9213;50.858;3.964;2023-05-21T14:43:35;29.50;33.00
18177;DHT22;9213;50.858;3.964;2023-05-21T14:46:02;29.50;33.40
18177;DHT22;9213;50.858;3.964;2023-05-21T14:48:29;29.60;33.40
18177;DHT22;9213;50.858;3.964;2023-05-21T14:50:56;29.70;33.30
18177;DHT22;9213;50.858;3.964;2023-05-21T14:53:25;29.70;33.60
18177;DHT22;9213;50.858;3.964;2023-05-21T14:55:52;29.70;33.10
18177;DHT22;9213;50.858;3.964;2023-05-21T14:58:19;29.70;33.00
18177;DHT22;9213;50.858;3.964;2023-05-21T15:00:46;29.70;32.40
18177;DHT22;9213;50.858;3.964;2023-05-21T15:03:13;29.70;32.90
18177;DHT22;9213;50.858;3.964;2023-05-21T15:05:40;29.50;32.90
18177;DHT22;9213;50.858;3.964;2023-05-21T15:08:07;29.30;33.00
18177;DHT22;9213;50.858;3.964;2023-05-21T15:10:36;29.20;33.40
18177;DHT22;9213;50.858;3.964;2023-05-21T15:13:03;29.00;33.60
18177;DHT22;9213;50.858;3.964;2023-05-21T15:15:30;28.80;34.00
18177;DHT22;9213;50.858;3.964;2023-05-21T15:17:56;28.70;34.20
18177;DHT22;9213;50.858;3.964;2023-05-21T15:20:23;28.70;34.60
18177;DHT22;9213;50.858;3.964;2023-05-21T15:22:51;28.70;34.60
18177;DHT22;9213;50.858;3.964;2023-05-21T15:25:18;28.60;34.10
18177;DHT22;9213;50.858;3.964;2023-05-21T15:27:47;28.60;34.50
18177;DHT22;9213;50.858;3.964;2023-05-21T15:30:13;28.50;34.80
18177;DHT22;9213;50.858;3.964;2023-05-21T15:32:40;28.40;35.30
18177;DHT22;9213;50.858;3.964;2023-05-21T15:35:08;28.20;35.40
18177;DHT22;9213;50.858;3.964;2023-05-21T15:37:35;28.10;35.50
18177;DHT22;9213;50.858;3.964;2023-05-21T15:40:02;27.90;35.80
18177;DHT22;9213;50.858;3.964;2023-05-21T15:42:29;27.80;35.50
18177;DHT22;9213;50.858;3.964;2023-05-21T15:44:58;27.60;35.90
18177;DHT22;9213;50.858;3.964;2023-05-21T15:47:24;27.50;36.20
18177;DHT22;9213;50.858;3.964;2023-05-21T15:49:51;27.40;36.50
18177;DHT22;9213;50.858;3.964;2023-05-21T15:52:19;27.30;36.80
18177;DHT22;9213;50.858;3.964;2023-05-21T15:54:46;27.30;36.70
18177;DHT22;9213;50.858;3.964;2023-05-21T15:57:13;27.20;36.90